Time;durP1;ratioP1;P1;durP2;ratioP2;P2;SDS_P1;SDS_P2;PMS_P1;PMS_P2;Temp;Humidity;BMP_temperature;BMP_pressure;BME280_temperature;BME280_humidity;BME280_pressure;Samples;Min_cycle;Max_cycle;Signal;HPM_P1;HPM_P2
2023/03/13 00:01:36;;;;;;;11.67;5.57;;;;;;;;;;5140168;27;20473;-76
2023/03/13 00:04:06;;;;;;;7.70;4.93;;;;;;;;;;5151405;27;20477;-75
2023/03/13 00:06:36;;;;;;;8.30;4.47;;;;;;;;;;5151950;27;20418;-76
2023/03/13 00:09:06;;;;;;;10.23;6.30;;;;;;;;;;5153833;27;20538;-76
2023/03/13 00:11:37;;;;;;;9.37;5.30;;;;;;;;;;5153502;27;20438;-75
2023/03/13 00:14:10;;;;;;;9.20;5.20;;;;;;;;;;5153261;27;20475;-74
2023/03/13 00:16:38;;;;;;;11.90;5.47;;;;;;;;;;5152878;27;20497;-75
2023/03/13 00:19:11;;;;;;;7.40;4.60;;;;;;;;;;5152668;27;20422;-75
2023/03/13 00:21:43;;;;;;;7.03;5.40;;;;;;;;;;5153996;27;20561;-74
2023/03/13 00:24:12;;;;;;;7.37;5.57;;;;;;;;;;5153991;27;20510;-76
2023/03/13 00:26:44;;;;;;;10.60;6.23;;;;;;;;;;5154399;28;20422;-74
2023/03/13 00:29:30;;;;;;;8.90;5.20;;;;;;;;;;5151805;28;20433;-76
2023/03/13 00:32:03;;;;;;;8.70;5.43;;;;;;;;;;5135356;27;20445;-76
2023/03/13 00:34:36;;;;;;;10.63;5.43;;;;;;;;;;5134089;28;20439;-76
2023/03/13 00:37:04;;;;;;;9.03;5.90;;;;;;;;;;5134597;27;20580;-76
2023/03/13 00:39:34;;;;;;;7.70;4.77;;;;;;;;;;5139330;27;20913;-75
2023/03/13 00:42:07;;;;;;;6.87;5.27;;;;;;;;;;5139066;27;20957;-75
2023/03/13 00:44:39;;;;;;;7.27;4.87;;;;;;;;;;5138863;27;20465;-76
2023/03/13 00:47:10;;;;;;;7.50;4.90;;;;;;;;;;5138218;27;20939;-77
2023/03/13 00:49:41;;;;;;;9.30;4.83;;;;;;;;;;5138300;27;20418;-78
2023/03/13 00:52:10;;;;;;;10.50;6.10;;;;;;;;;;5138320;27;20454;-77
2023/03/13 00:54:40;;;;;;;8.40;5.10;;;;;;;;;;5138839;27;20968;-77
2023/03/13 00:57:08;;;;;;;6.80;4.57;;;;;;;;;;5138175;27;20446;-77
2023/03/13 00:59:39;;;;;;;9.37;4.90;;;;;;;;;;5132371;27;20453;-77
2023/03/13 01:02:08;;;;;;;9.60;5.13;;;;;;;;;;5130413;27;20466;-78
2023/03/13 01:04:36;;;;;;;12.87;5.47;;;;;;;;;;5139216;27;20500;-77
2023/03/13 01:07:06;;;;;;;9.03;5.27;;;;;;;;;;5141799;27;20431;-78
2023/03/13 01:09:36;;;;;;;9.20;4.97;;;;;;;;;;5137728;27;20447;-77
2023/03/13 01:12:11;;;;;;;10.87;5.20;;;;;;;;;;5123435;27;20446;-79
2023/03/13 01:14:50;;;;;;;8.87;4.40;;;;;;;;;;5124125;27;20463;-77
2023/03/13 01:17:27;;;;;;;13.77;5.50;;;;;;;;;;5125809;28;20410;-76
2023/03/13 01:20:12;;;;;;;9.57;4.80;;;;;;;;;;5122607;27;20478;-78
2023/03/13 01:22:44;;;;;;;9.70;5.47;;;;;;;;;;5123954;27;20473;-77
2023/03/13 01:25:12;;;;;;;12.20;4.37;;;;;;;;;;5126895;28;20459;-78
2023/03/13 01:27:51;;;;;;;10.40;5.30;;;;;;;;;;5126479;28;20484;-78
2023/03/13 01:30:18;;;;;;;8.67;5.20;;;;;;;;;;5128747;27;20869;-77
2023/03/13 01:32:50;;;;;;;6.60;5.00;;;;;;;;;;5128162;27;20438;-76
2023/03/13 01:35:19;;;;;;;10.33;4.50;;;;;;;;;;5129151;28;20446;-77
2023/03/13 01:37:48;;;;;;;8.70;5.13;;;;;;;;;;5123461;27;20526;-77
2023/03/13 01:40:20;;;;;;;10.23;5.13;;;;;;;;;;5123548;27;20449;-76
2023/03/13 01:43:03;;;;;;;8.00;4.40;;;;;;;;;;5122224;28;20475;-77
2023/03/13 01:45:52;;;;;;;8.70;5.10;;;;;;;;;;5122163;28;20454;-78
2023/03/13 01:48:26;;;;;;;7.33;4.33;;;;;;;;;;5122843;27;21083;-76
2023/03/13 01:51:08;;;;;;;8.10;4.73;;;;;;;;;;5121961;27;20522;-78
2023/03/13 01:53:51;;;;;;;8.07;4.63;;;;;;;;;;5123029;28;20439;-77
2023/03/13 01:56:23;;;;;;;10.70;4.43;;;;;;;;;;5122668;28;20446;-77
2023/03/13 01:58:54;;;;;;;8.20;4.17;;;;;;;;;;5118671;28;20823;-78
2023/03/13 02:01:24;;;;;;;9.47;4.60;;;;;;;;;;5116928;27;20527;-77
2023/03/13 02:03:55;;;;;;;11.43;4.67;;;;;;;;;;5124761;27;20473;-78
2023/03/13 02:06:23;;;;;;;10.77;4.80;;;;;;;;;;5137308;27;20437;-76
2023/03/13 02:09:00;;;;;;;11.87;4.10;;;;;;;;;;5139204;27;20957;-78
2023/03/13 02:11:38;;;;;;;8.63;4.30;;;;;;;;;;5141676;27;20425;-78
2023/03/13 02:14:12;;;;;;;7.40;3.90;;;;;;;;;;5142961;27;20469;-76
2023/03/13 02:16:40;;;;;;;9.30;3.73;;;;;;;;;;5141424;27;20517;-77
2023/03/13 02:19:18;;;;;;;7.43;4.00;;;;;;;;;;5141573;27;20475;-79
2023/03/13 02:21:49;;;;;;;5.87;3.30;;;;;;;;;;5138975;27;20548;-77
2023/03/13 02:24:23;;;;;;;10.00;3.90;;;;;;;;;;5136424;27;20450;-78
2023/03/13 02:26:58;;;;;;;6.93;4.50;;;;;;;;;;5137142;27;20453;-77
2023/03/13 02:29:26;;;;;;;6.87;3.40;;;;;;;;;;5137807;27;20449;-77
2023/03/13 02:32:00;;;;;;;7.77;3.73;;;;;;;;;;5138936;27;20441;-76
2023/03/13 02:34:36;;;;;;;14.80;4.20;;;;;;;;;;5138891;27;20470;-77
2023/03/13 02:37:11;;;;;;;6.67;4.03;;;;;;;;;;5136941;27;20469;-78
2023/03/13 02:39:40;;;;;;;6.87;3.40;;;;;;;;;;5137257;27;21132;-77
2023/03/13 02:42:13;;;;;;;6.33;3.53;;;;;;;;;;5137304;27;20462;-79
2023/03/13 02:44:46;;;;;;;5.53;3.37;;;;;;;;;;5142409;27;20474;-77
2023/03/13 02:47:14;;;;;;;8.57;3.70;;;;;;;;;;5138106;27;20532;-77
2023/03/13 02:49:45;;;;;;;6.80;3.63;;;;;;;;;;5137402;27;20450;-76
2023/03/13 02:52:36;;;;;;;5.30;3.23;;;;;;;;;;5137602;27;20537;-76
2023/03/13 02:55:16;;;;;;;5.77;3.20;;;;;;;;;;5139026;27;20550;-78
2023/03/13 02:57:52;;;;;;;8.73;3.63;;;;;;;;;;5139456;27;20477;-77
2023/03/13 03:00:27;;;;;;;6.70;2.60;;;;;;;;;;5137375;27;20980;-76
2023/03/13 03:03:07;;;;;;;5.23;2.53;;;;;;;;;;5134659;27;20472;-77
2023/03/13 03:05:34;;;;;;;6.47;2.63;;;;;;;;;;5134521;27;20485;-77
2023/03/13 03:08:05;;;;;;;4.80;1.90;;;;;;;;;;5134482;27;21000;-76
2023/03/13 03:10:35;;;;;;;6.83;2.50;;;;;;;;;;5135200;27;20446;-77
2023/03/13 03:13:14;;;;;;;3.83;2.10;;;;;;;;;;5134410;27;20909;-78
2023/03/13 03:15:48;;;;;;;2.77;2.23;;;;;;;;;;5134308;27;20477;-76
2023/03/13 03:18:24;;;;;;;5.60;2.10;;;;;;;;;;5134296;27;20537;-77
2023/03/13 03:20:56;;;;;;;3.43;2.33;;;;;;;;;;5134325;27;20536;-76
2023/03/13 03:23:24;;;;;;;4.63;2.33;;;;;;;;;;5134200;27;20553;-78
2023/03/13 03:25:52;;;;;;;5.60;2.37;;;;;;;;;;5135644;27;20453;-78
2023/03/13 03:28:21;;;;;;;3.00;2.00;;;;;;;;;;5134427;27;20450;-77
2023/03/13 03:30:57;;;;;;;5.93;1.87;;;;;;;;;;5136215;27;20437;-77
2023/03/13 03:33:26;;;;;;;3.23;1.77;;;;;;;;;;5136805;27;20476;-76
2023/03/13 03:36:00;;;;;;;6.80;1.90;;;;;;;;;;5135960;27;20453;-77
2023/03/13 03:38:33;;;;;;;4.70;2.40;;;;;;;;;;5137154;27;20442;-77
2023/03/13 03:41:04;;;;;;;2.63;2.00;;;;;;;;;;5137865;27;20446;-76
2023/03/13 03:43:36;;;;;;;3.43;2.07;;;;;;;;;;5139015;27;20466;-77
2023/03/13 03:46:04;;;;;;;5.40;1.87;;;;;;;;;;5138419;27;20930;-76
2023/03/13 03:48:34;;;;;;;4.60;1.80;;;;;;;;;;5139491;27;20502;-76
2023/03/13 03:51:02;;;;;;;4.27;2.10;;;;;;;;;;5138014;27;20456;-77
2023/03/13 03:53:31;;;;;;;7.10;1.97;;;;;;;;;;5139235;27;20552;-76
2023/03/13 03:56:02;;;;;;;3.83;2.13;;;;;;;;;;5140306;27;20449;-76
2023/03/13 03:58:29;;;;;;;4.90;1.97;;;;;;;;;;5139990;27;20525;-77
2023/03/13 04:00:59;;;;;;;3.77;2.43;;;;;;;;;;5139718;27;21020;-76
2023/03/13 04:03:27;;;;;;;3.83;2.27;;;;;;;;;;5138423;27;20473;-77
2023/03/13 04:05:54;;;;;;;3.83;1.93;;;;;;;;;;5140318;27;20449;-76
2023/03/13 04:08:25;;;;;;;2.20;1.93;;;;;;;;;;5142021;28;20980;-77
2023/03/13 04:10:53;;;;;;;2.57;1.27;;;;;;;;;;5142336;27;20914;-75
2023/03/13 04:13:22;;;;;;;3.07;1.67;;;;;;;;;;5142773;27;20461;-77
2023/03/13 04:15:49;;;;;;;1.60;1.40;;;;;;;;;;5145830;27;20482;-76
2023/03/13 04:18:19;;;;;;;1.40;1.10;;;;;;;;;;5144685;27;20478;-76
2023/03/13 04:20:47;;;;;;;3.63;1.30;;;;;;;;;;5144892;27;20445;-76
2023/03/13 04:23:17;;;;;;;2.00;1.50;;;;;;;;;;5144498;27;20505;-76
2023/03/13 04:25:45;;;;;;;2.23;1.40;;;;;;;;;;5145335;27;20448;-77
2023/03/13 04:28:12;;;;;;;1.13;1.13;;;;;;;;;;5144128;27;20461;-78
2023/03/13 04:30:40;;;;;;;1.53;1.00;;;;;;;;;;5144294;27;20517;-76
2023/03/13 04:33:07;;;;;;;1.27;1.17;;;;;;;;;;5143880;27;20458;-76
2023/03/13 04:35:37;;;;;;;1.60;1.50;;;;;;;;;;5142507;27;20453;-77
2023/03/13 04:38:04;;;;;;;1.27;1.10;;;;;;;;;;5141449;27;20454;-76
2023/03/13 04:40:32;;;;;;;2.80;1.37;;;;;;;;;;5141242;27;20450;-76
2023/03/13 04:43:00;;;;;;;0.90;0.90;;;;;;;;;;5141166;27;20466;-76
2023/03/13 04:45:27;;;;;;;1.17;1.00;;;;;;;;;;5140412;27;20462;-76
2023/03/13 04:47:58;;;;;;;2.13;1.13;;;;;;;;;;5140253;27;20491;-76
2023/03/13 04:50:28;;;;;;;2.30;1.03;;;;;;;;;;5140005;27;20529;-76
2023/03/13 04:52:58;;;;;;;2.87;1.10;;;;;;;;;;5143247;27;20437;-76
2023/03/13 04:55:25;;;;;;;1.20;1.10;;;;;;;;;;5142954;27;20460;-76
2023/03/13 04:57:56;;;;;;;1.73;1.63;;;;;;;;;;5139866;27;20519;-77
2023/03/13 05:00:28;;;;;;;1.03;0.97;;;;;;;;;;5140686;27;20470;-76
2023/03/13 05:02:56;;;;;;;1.33;0.90;;;;;;;;;;5140051;27;20465;-76
2023/03/13 05:05:23;;;;;;;1.87;1.30;;;;;;;;;;5140475;27;20459;-76
2023/03/13 05:07:51;;;;;;;2.97;1.13;;;;;;;;;;5140215;27;20473;-77
2023/03/13 05:10:24;;;;;;;2.20;1.10;;;;;;;;;;5139399;27;20452;-77
2023/03/13 05:12:58;;;;;;;2.53;1.20;;;;;;;;;;5138970;27;20529;-77
2023/03/13 05:15:26;;;;;;;1.20;1.20;;;;;;;;;;5141152;27;20514;-76
2023/03/13 05:17:56;;;;;;;0.80;0.80;;;;;;;;;;5140558;27;20438;-77
2023/03/13 05:20:24;;;;;;;0.93;0.93;;;;;;;;;;5139314;27;21163;-77
2023/03/13 05:22:52;;;;;;;1.20;1.10;;;;;;;;;;5140145;27;20477;-76
2023/03/13 05:25:20;;;;;;;1.30;1.20;;;;;;;;;;5138938;27;20432;-78
2023/03/13 05:27:54;;;;;;;0.90;0.90;;;;;;;;;;5138704;27;20491;-78
2023/03/13 05:30:22;;;;;;;1.70;1.10;;;;;;;;;;5138635;27;20454;-77
2023/03/13 05:32:53;;;;;;;1.77;0.90;;;;;;;;;;5138098;27;20442;-78
2023/03/13 05:35:23;;;;;;;2.00;1.40;;;;;;;;;;5138555;27;20441;-78
2023/03/13 05:37:50;;;;;;;1.10;1.00;;;;;;;;;;5136714;27;20440;-77
2023/03/13 05:40:18;;;;;;;0.80;0.80;;;;;;;;;;5136809;27;20442;-77
2023/03/13 05:42:48;;;;;;;1.20;1.10;;;;;;;;;;5136007;27;20465;-78
2023/03/13 05:45:17;;;;;;;3.93;1.40;;;;;;;;;;5136919;27;20430;-78
2023/03/13 05:47:45;;;;;;;1.67;1.23;;;;;;;;;;5136757;27;20576;-77
2023/03/13 05:50:12;;;;;;;1.43;1.20;;;;;;;;;;5135257;27;20480;-77
2023/03/13 05:52:42;;;;;;;1.40;1.30;;;;;;;;;;5135570;27;20442;-77
2023/03/13 05:55:12;;;;;;;1.13;0.70;;;;;;;;;;5136084;27;20555;-76
2023/03/13 05:57:40;;;;;;;1.43;1.00;;;;;;;;;;5136091;27;20876;-78
2023/03/13 06:00:11;;;;;;;1.13;0.87;;;;;;;;;;5136079;27;20968;-77
2023/03/13 06:02:41;;;;;;;0.80;0.80;;;;;;;;;;5136064;27;20477;-77
2023/03/13 06:05:12;;;;;;;0.90;0.90;;;;;;;;;;5140046;27;20507;-77
2023/03/13 06:07:41;;;;;;;2.47;0.93;;;;;;;;;;5140332;27;20453;-78
2023/03/13 06:10:10;;;;;;;0.80;0.80;;;;;;;;;;5144230;27;20442;-77
2023/03/13 06:12:40;;;;;;;2.23;0.70;;;;;;;;;;5142636;27;20506;-77
2023/03/13 06:18:26;;;;;;;0.80;0.80;;;;;;;;;;5130194;27;20488;-78
2023/03/13 06:21:00;;;;;;;0.93;0.93;;;;;;;;;;5163000;27;20510;-77
2023/03/13 06:23:28;;;;;;;1.33;0.70;;;;;;;;;;5146787;27;20517;-78
2023/03/13 06:25:56;;;;;;;2.87;1.00;;;;;;;;;;5164594;27;20519;-78
2023/03/13 06:28:24;;;;;;;1.93;1.73;;;;;;;;;;5162656;27;20441;-77
2023/03/13 06:30:51;;;;;;;0.87;0.87;;;;;;;;;;5163382;27;20536;-77
2023/03/13 06:33:27;;;;;;;0.90;0.90;;;;;;;;;;5160851;27;20480;-77
2023/03/13 06:36:04;;;;;;;0.93;0.60;;;;;;;;;;5158487;27;20539;-78
2023/03/13 06:38:35;;;;;;;0.80;0.70;;;;;;;;;;5163234;27;20425;-77
2023/03/13 06:41:04;;;;;;;0.73;0.57;;;;;;;;;;5161773;27;20512;-78
2023/03/13 06:43:33;;;;;;;0.83;0.70;;;;;;;;;;5162475;27;20545;-77
2023/03/13 06:46:06;;;;;;;0.97;0.97;;;;;;;;;;5159769;27;20452;-78
2023/03/13 06:48:36;;;;;;;1.10;0.60;;;;;;;;;;5158385;27;20441;-78
2023/03/13 06:51:09;;;;;;;1.13;0.90;;;;;;;;;;5158038;27;20557;-77
2023/03/13 06:53:42;;;;;;;1.60;0.97;;;;;;;;;;5158635;27;20485;-78
2023/03/13 06:56:13;;;;;;;0.70;0.67;;;;;;;;;;5161716;27;20505;-77
2023/03/13 06:58:41;;;;;;;0.87;0.87;;;;;;;;;;5160188;27;20453;-78
2023/03/13 07:01:11;;;;;;;0.60;0.60;;;;;;;;;;5158605;27;20475;-78
2023/03/13 07:03:42;;;;;;;1.90;0.90;;;;;;;;;;5156840;27;20545;-77
2023/03/13 07:06:13;;;;;;;1.07;0.90;;;;;;;;;;5157185;27;20490;-77
2023/03/13 07:08:40;;;;;;;0.73;0.73;;;;;;;;;;5157216;27;20452;-77
2023/03/13 07:11:12;;;;;;;2.77;1.27;;;;;;;;;;5156976;27;20478;-78
2023/03/13 07:13:40;;;;;;;1.70;1.30;;;;;;;;;;5156728;27;20548;-77
2023/03/13 07:16:09;;;;;;;0.80;0.80;;;;;;;;;;5154969;27;20526;-77
2023/03/13 07:18:37;;;;;;;0.97;0.97;;;;;;;;;;5135556;27;20518;-78
2023/03/13 07:21:07;;;;;;;0.83;0.60;;;;;;;;;;5135050;27;20953;-77
2023/03/13 07:23:36;;;;;;;1.00;0.80;;;;;;;;;;5135422;27;20840;-78
2023/03/13 07:26:04;;;;;;;1.57;0.80;;;;;;;;;;5135036;27;20515;-78
2023/03/13 07:28:33;;;;;;;1.67;0.87;;;;;;;;;;5133551;27;20446;-78
2023/03/13 07:31:07;;;;;;;0.83;0.83;;;;;;;;;;5135382;27;20964;-77
2023/03/13 07:33:38;;;;;;;4.60;3.10;;;;;;;;;;5135783;27;20462;-77
2023/03/13 07:36:08;;;;;;;1.50;1.40;;;;;;;;;;5135697;27;20446;-79
2023/03/13 07:38:37;;;;;;;1.40;1.33;;;;;;;;;;5137292;27;20446;-77
2023/03/13 07:41:05;;;;;;;1.30;0.83;;;;;;;;;;5142026;27;20442;-77
2023/03/13 07:43:33;;;;;;;1.00;1.00;;;;;;;;;;5141461;27;20538;-77
2023/03/13 07:46:05;;;;;;;3.57;1.00;;;;;;;;;;5141131;27;20455;-77
2023/03/13 07:48:34;;;;;;;0.90;0.90;;;;;;;;;;5139987;27;20834;-79
2023/03/13 07:51:09;;;;;;;1.50;1.10;;;;;;;;;;5139673;27;20997;-77
2023/03/13 07:53:40;;;;;;;1.90;0.83;;;;;;;;;;5140140;27;20465;-77
2023/03/13 07:56:11;;;;;;;1.43;0.80;;;;;;;;;;5139973;27;20536;-77
2023/03/13 07:58:42;;;;;;;0.83;0.83;;;;;;;;;;5141194;27;20446;-78
2023/03/13 08:01:11;;;;;;;0.90;0.90;;;;;;;;;;5142163;27;20453;-77
2023/03/13 08:03:44;;;;;;;0.70;0.70;;;;;;;;;;5140691;27;20923;-79
2023/03/13 08:06:12;;;;;;;1.47;1.07;;;;;;;;;;5141401;27;20454;-79
2023/03/13 08:08:41;;;;;;;1.30;1.30;;;;;;;;;;5140868;27;20511;-79
2023/03/13 08:11:11;;;;;;;1.10;1.03;;;;;;;;;;5139872;27;20450;-77
2023/03/13 08:13:40;;;;;;;1.00;1.00;;;;;;;;;;5140137;27;20515;-78
2023/03/13 08:16:09;;;;;;;1.10;1.00;;;;;;;;;;5137953;27;20494;-79
2023/03/13 08:18:42;;;;;;;0.70;0.70;;;;;;;;;;5137406;27;20450;-77
2023/03/13 08:21:14;;;;;;;0.87;0.87;;;;;;;;;;5137961;27;20462;-76
2023/03/13 08:23:44;;;;;;;1.10;1.00;;;;;;;;;;5137220;27;20507;-76
2023/03/13 08:26:13;;;;;;;0.90;0.90;;;;;;;;;;5138302;27;20747;-78
2023/03/13 08:28:45;;;;;;;1.27;1.00;;;;;;;;;;5139193;27;20422;-78
2023/03/13 08:31:20;;;;;;;2.90;1.10;;;;;;;;;;5140489;27;20446;-78
2023/03/13 08:33:51;;;;;;;0.87;0.83;;;;;;;;;;5141521;27;20465;-79
2023/03/13 08:36:23;;;;;;;1.53;1.13;;;;;;;;;;5141854;27;20452;-78
2023/03/13 08:39:03;;;;;;;1.00;0.90;;;;;;;;;;5139252;27;20450;-77
2023/03/13 08:41:35;;;;;;;0.90;0.90;;;;;;;;;;5136316;27;20498;-77
2023/03/13 08:44:03;;;;;;;0.93;0.93;;;;;;;;;;5136255;27;20477;-78
2023/03/13 08:46:33;;;;;;;1.83;1.30;;;;;;;;;;5139568;27;20518;-79
2023/03/13 08:49:09;;;;;;;2.57;1.40;;;;;;;;;;5142677;27;20521;-78
2023/03/13 08:51:44;;;;;;;2.93;1.00;;;;;;;;;;5145262;28;20445;-78
2023/03/13 08:54:13;;;;;;;1.53;1.10;;;;;;;;;;5145998;27;20537;-77
2023/03/13 08:56:43;;;;;;;1.10;1.10;;;;;;;;;;5144858;27;20454;-78
2023/03/13 08:59:11;;;;;;;2.40;1.30;;;;;;;;;;5146624;27;20437;-78
2023/03/13 09:01:46;;;;;;;1.40;1.30;;;;;;;;;;5148890;27;20446;-77
2023/03/13 09:04:19;;;;;;;1.67;1.57;;;;;;;;;;5147827;27;20488;-77
2023/03/13 09:06:50;;;;;;;1.30;1.20;;;;;;;;;;5147939;27;20473;-80
2023/03/13 09:09:23;;;;;;;1.00;1.00;;;;;;;;;;5147308;27;20438;-77
2023/03/13 09:11:57;;;;;;;2.20;1.30;;;;;;;;;;5148035;27;20430;-77
2023/03/13 09:14:27;;;;;;;1.50;1.40;;;;;;;;;;5148655;27;20484;-77
2023/03/13 09:17:00;;;;;;;1.53;1.33;;;;;;;;;;5148775;27;20511;-77
2023/03/13 09:19:29;;;;;;;1.40;1.40;;;;;;;;;;5149220;27;20437;-77
2023/03/13 09:22:04;;;;;;;1.37;1.27;;;;;;;;;;5147946;27;20446;-77
2023/03/13 09:24:34;;;;;;;1.50;1.40;;;;;;;;;;5146571;27;20469;-79
2023/03/13 09:27:02;;;;;;;1.80;1.37;;;;;;;;;;5146633;27;20442;-77
2023/03/13 09:29:30;;;;;;;1.60;1.50;;;;;;;;;;5147261;27;21028;-77
2023/03/13 09:32:03;;;;;;;1.40;1.30;;;;;;;;;;5147427;27;20457;-77
2023/03/13 09:34:33;;;;;;;1.73;1.57;;;;;;;;;;5147718;27;20491;-79
2023/03/13 09:37:04;;;;;;;2.73;2.13;;;;;;;;;;5149102;27;20450;-77
2023/03/13 09:39:36;;;;;;;2.30;1.30;;;;;;;;;;5149747;27;20446;-78
2023/03/13 09:42:11;;;;;;;1.67;1.30;;;;;;;;;;5151218;27;20453;-76
2023/03/13 09:44:46;;;;;;;1.97;1.60;;;;;;;;;;5150920;27;20465;-76
2023/03/13 09:47:25;;;;;;;3.33;1.27;;;;;;;;;;5147568;27;20459;-77
2023/03/13 09:49:59;;;;;;;1.20;1.10;;;;;;;;;;5145424;27;20456;-79
2023/03/13 09:52:28;;;;;;;3.13;2.03;;;;;;;;;;5149881;27;20463;-78
2023/03/13 09:54:59;;;;;;;1.53;1.30;;;;;;;;;;5149270;27;20473;-76
2023/03/13 09:57:35;;;;;;;1.17;1.07;;;;;;;;;;5148830;27;20506;-78
2023/03/13 10:00:06;;;;;;;2.10;1.20;;;;;;;;;;5147791;27;20457;-77
2023/03/13 10:02:34;;;;;;;2.40;1.47;;;;;;;;;;5150814;27;21005;-78
2023/03/13 10:05:17;;;;;;;1.23;1.13;;;;;;;;;;5149186;27;20482;-77
2023/03/13 10:07:48;;;;;;;1.60;1.47;;;;;;;;;;5148885;27;20458;-77
2023/03/13 10:10:22;;;;;;;4.43;1.70;;;;;;;;;;5147163;27;20477;-77
2023/03/13 10:12:57;;;;;;;2.40;1.50;;;;;;;;;;5143786;27;20430;-78
2023/03/13 10:15:36;;;;;;;1.60;1.50;;;;;;;;;;5144321;27;20505;-78
2023/03/13 10:18:12;;;;;;;1.83;1.67;;;;;;;;;;5141297;27;20450;-77
2023/03/13 10:20:47;;;;;;;2.77;1.40;;;;;;;;;;5142170;27;20442;-77
2023/03/13 10:23:21;;;;;;;2.77;1.47;;;;;;;;;;5141877;27;20461;-77
2023/03/13 10:26:00;;;;;;;2.40;1.13;;;;;;;;;;5139975;27;20446;-78
2023/03/13 10:28:30;;;;;;;3.27;1.60;;;;;;;;;;5137184;27;20509;-77
2023/03/13 10:31:03;;;;;;;4.23;1.40;;;;;;;;;;5136324;27;20465;-77
2023/03/13 10:33:31;;;;;;;1.43;1.30;;;;;;;;;;5135603;27;20822;-77
2023/03/13 10:36:08;;;;;;;2.00;1.70;;;;;;;;;;5137741;27;20450;-77
2023/03/13 10:38:49;;;;;;;2.50;1.63;;;;;;;;;;5137290;27;20473;-78
2023/03/13 10:41:28;;;;;;;1.87;1.77;;;;;;;;;;5136770;27;20446;-76
2023/03/13 10:44:03;;;;;;;2.57;1.60;;;;;;;;;;5136906;27;20495;-76
2023/03/13 10:46:55;;;;;;;1.57;1.30;;;;;;;;;;5127548;27;20457;-77
2023/03/13 10:49:25;;;;;;;2.07;1.80;;;;;;;;;;5139190;27;20442;-77
2023/03/13 10:51:54;;;;;;;1.73;1.63;;;;;;;;;;5139124;27;20446;-76
2023/03/13 10:54:23;;;;;;;1.70;1.60;;;;;;;;;;5138388;27;20470;-79
2023/03/13 10:57:09;;;;;;;2.30;1.50;;;;;;;;;;5138610;27;21017;-77
2023/03/13 10:59:41;;;;;;;2.00;1.90;;;;;;;;;;5139440;27;20480;-78
2023/03/13 11:02:20;;;;;;;2.03;1.80;;;;;;;;;;5139298;27;20533;-78
2023/03/13 11:04:52;;;;;;;2.53;1.80;;;;;;;;;;5139681;27;20477;-77
2023/03/13 11:07:22;;;;;;;2.27;1.67;;;;;;;;;;5139146;27;20502;-78
2023/03/13 11:09:59;;;;;;;2.47;1.50;;;;;;;;;;5139723;27;20938;-79
2023/03/13 11:12:28;;;;;;;1.70;1.60;;;;;;;;;;5139269;27;20474;-79
2023/03/13 11:15:09;;;;;;;1.80;1.70;;;;;;;;;;5137064;27;20493;-78
2023/03/13 11:17:41;;;;;;;1.73;1.63;;;;;;;;;;5135919;27;20454;-77
2023/03/13 11:20:13;;;;;;;1.87;1.77;;;;;;;;;;5135764;27;20450;-78
2023/03/13 11:22:50;;;;;;;5.07;1.67;;;;;;;;;;5136478;27;20817;-79
2023/03/13 11:25:26;;;;;;;2.07;1.97;;;;;;;;;;5135947;27;20465;-76
2023/03/13 11:28:05;;;;;;;5.77;2.00;;;;;;;;;;5136055;27;20475;-78
2023/03/13 11:30:46;;;;;;;2.00;1.80;;;;;;;;;;5136992;27;20478;-78
2023/03/13 11:33:19;;;;;;;2.30;1.77;;;;;;;;;;5137731;27;20465;-78
2023/03/13 11:35:50;;;;;;;4.13;2.00;;;;;;;;;;5135873;27;20450;-78
2023/03/13 11:38:26;;;;;;;4.03;2.03;;;;;;;;;;5135921;27;20873;-77
2023/03/13 11:41:13;;;;;;;3.67;1.70;;;;;;;;;;5136129;27;20449;-77
2023/03/13 11:44:00;;;;;;;1.70;1.60;;;;;;;;;;5136129;27;20628;-77
2023/03/13 11:46:49;;;;;;;2.20;1.80;;;;;;;;;;5136065;27;20450;-77
2023/03/13 11:49:29;;;;;;;1.37;1.20;;;;;;;;;;5135673;27;20499;-76
2023/03/13 11:52:10;;;;;;;2.00;1.90;;;;;;;;;;5136345;27;20589;-77
2023/03/13 11:54:59;;;;;;;2.23;1.40;;;;;;;;;;5135291;27;20523;-77
2023/03/13 11:57:34;;;;;;;1.43;1.33;;;;;;;;;;5136727;27;20446;-77
2023/03/13 12:00:22;;;;;;;1.40;1.30;;;;;;;;;;5136396;27;20458;-78
2023/03/13 12:02:51;;;;;;;4.50;1.60;;;;;;;;;;5136166;27;20426;-78
2023/03/13 12:08:14;;;;;;;2.43;1.23;;;;;;;;;;5119762;27;20478;-78
2023/03/13 12:10:46;;;;;;;2.20;1.77;;;;;;;;;;5120477;28;20764;-78
2023/03/13 12:13:24;;;;;;;1.50;1.40;;;;;;;;;;5120181;28;20538;-77
2023/03/13 12:16:02;;;;;;;3.43;1.80;;;;;;;;;;5122819;27;20703;-78
2023/03/13 12:18:39;;;;;;;1.73;1.57;;;;;;;;;;5116201;27;20492;-78
2023/03/13 12:21:33;;;;;;;3.60;2.60;;;;;;;;;;5115285;28;20462;-78
2023/03/13 12:24:18;;;;;;;1.50;1.37;;;;;;;;;;5116740;28;20467;-78
2023/03/13 12:26:53;;;;;;;11.97;1.63;;;;;;;;;;5118495;28;20455;-78
2023/03/13 12:29:28;;;;;;;2.13;1.43;;;;;;;;;;5118560;27;20510;-78
2023/03/13 12:32:06;;;;;;;1.33;1.20;;;;;;;;;;5118378;27;20451;-77
2023/03/13 12:34:39;;;;;;;1.37;1.00;;;;;;;;;;5120517;27;20465;-77
2023/03/13 12:37:12;;;;;;;2.70;1.37;;;;;;;;;;5123058;27;20473;-78
2023/03/13 12:39:54;;;;;;;2.27;1.37;;;;;;;;;;5124715;28;20482;-78
2023/03/13 12:45:33;;;;;;;1.63;1.30;;;;;;;;;;5118848;27;20482;-78
2023/03/13 12:51:31;;;;;;;1.47;1.37;;;;;;;;;;5169430;27;20478;-78
2023/03/13 12:57:22;;;;;;;1.07;0.80;;;;;;;;;;5135486;27;20426;-78
2023/03/13 12:59:53;;;;;;;1.33;1.23;;;;;;;;;;5139399;27;20456;-75
2023/03/13 13:02:23;;;;;;;1.33;1.23;;;;;;;;;;5138580;27;20457;-77
2023/03/13 13:04:53;;;;;;;0.93;0.83;;;;;;;;;;5138970;27;20582;-77
2023/03/13 13:07:35;;;;;;;1.10;1.10;;;;;;;;;;5140617;27;20922;-77
2023/03/13 13:10:15;;;;;;;1.20;1.10;;;;;;;;;;5139926;27;20453;-76
2023/03/13 13:13:10;;;;;;;2.30;1.40;;;;;;;;;;5138496;27;20449;-78
2023/03/13 13:15:51;;;;;;;1.47;0.90;;;;;;;;;;5131504;27;20444;-76
2023/03/13 13:21:25;;;;;;;2.20;1.10;;;;;;;;;;5136282;27;20449;-77
2023/03/13 13:23:58;;;;;;;1.47;1.37;;;;;;;;;;5135694;27;20972;-76
2023/03/13 13:26:47;;;;;;;3.37;1.10;;;;;;;;;;5136550;27;20480;-75
2023/03/13 13:29:38;;;;;;;1.23;1.13;;;;;;;;;;5137825;27;20856;-77
2023/03/13 13:32:15;;;;;;;0.70;0.70;;;;;;;;;;5120023;27;20514;-75
2023/03/13 13:34:56;;;;;;;1.60;1.10;;;;;;;;;;5136211;27;20461;-77
2023/03/13 13:37:30;;;;;;;1.63;1.10;;;;;;;;;;5136589;27;20453;-77
2023/03/13 13:40:20;;;;;;;1.00;0.90;;;;;;;;;;5138080;27;20461;-76
2023/03/13 13:43:05;;;;;;;0.77;0.73;;;;;;;;;;5142599;27;20436;-77
2023/03/13 13:46:04;;;;;;;1.00;0.90;;;;;;;;;;5144699;27;20695;-77
2023/03/13 13:48:53;;;;;;;4.97;0.90;;;;;;;;;;5121266;27;20449;-77
2023/03/13 13:51:36;;;;;;;3.23;1.00;;;;;;;;;;5138686;27;20481;-76
2023/03/13 13:54:40;;;;;;;1.63;0.93;;;;;;;;;;5139160;27;20661;-76
2023/03/13 13:57:17;;;;;;;1.90;1.10;;;;;;;;;;5141245;27;20446;-76
2023/03/13 14:02:52;;;;;;;1.83;1.00;;;;;;;;;;5143410;27;20449;-78
2023/03/13 14:05:27;;;;;;;1.10;1.10;;;;;;;;;;5144641;27;20480;-76
2023/03/13 14:08:10;;;;;;;1.63;1.13;;;;;;;;;;5139784;27;20818;-77
2023/03/13 14:10:46;;;;;;;3.83;1.00;;;;;;;;;;5135904;27;20456;-76
2023/03/13 14:13:42;;;;;;;3.13;1.00;;;;;;;;;;5138749;27;20473;-77
2023/03/13 14:16:32;;;;;;;1.43;0.97;;;;;;;;;;5112244;27;20450;-77
2023/03/13 14:19:21;;;;;;;2.87;1.20;;;;;;;;;;5116473;27;20471;-76
2023/03/13 14:22:03;;;;;;;1.20;1.00;;;;;;;;;;5114038;27;20534;-77
2023/03/13 14:24:40;;;;;;;1.10;0.97;;;;;;;;;;5114596;27;20503;-76
2023/03/13 14:27:20;;;;;;;1.37;0.90;;;;;;;;;;5133991;27;20818;-75
2023/03/13 14:30:14;;;;;;;2.97;1.20;;;;;;;;;;5134199;27;20883;-77
2023/03/13 14:35:45;;;;;;;4.50;1.37;;;;;;;;;;5132643;27;20442;-77
2023/03/13 14:38:28;;;;;;;1.27;1.13;;;;;;;;;;5135161;27;20469;-78
2023/03/13 14:41:04;;;;;;;1.97;1.37;;;;;;;;;;5135216;27;20503;-77
2023/03/13 14:43:44;;;;;;;1.60;1.20;;;;;;;;;;5135681;27;20493;-77
2023/03/13 14:46:37;;;;;;;1.80;1.20;;;;;;;;;;5136000;27;20497;-77
2023/03/13 14:49:16;;;;;;;2.10;1.20;;;;;;;;;;5135398;27;20450;-76
2023/03/13 14:52:24;;;;;;;4.67;1.50;;;;;;;;;;5134849;27;20863;-77
2023/03/13 14:55:13;;;;;;;1.10;1.00;;;;;;;;;;5136324;27;20456;-76
2023/03/13 14:57:58;;;;;;;1.60;1.17;;;;;;;;;;5136027;27;20536;-77
2023/03/13 15:00:41;;;;;;;3.20;1.27;;;;;;;;;;5140032;27;20480;-76
2023/03/13 15:03:28;;;;;;;3.50;1.10;;;;;;;;;;5136172;27;20501;-76
2023/03/13 15:06:26;;;;;;;3.40;1.20;;;;;;;;;;5143209;27;20473;-75
2023/03/13 15:09:20;;;;;;;2.60;1.60;;;;;;;;;;5119809;27;20540;-76
2023/03/13 15:12:19;;;;;;;1.17;1.07;;;;;;;;;;5154951;27;20453;-76
2023/03/13 15:17:44;;;;;;;2.10;1.33;;;;;;;;;;5137740;27;20422;-77
2023/03/13 15:20:14;;;;;;;1.63;1.27;;;;;;;;;;5135120;27;20446;-75
2023/03/13 15:22:44;;;;;;;1.50;1.10;;;;;;;;;;5135650;27;20536;-77
2023/03/13 15:25:24;;;;;;;1.80;1.13;;;;;;;;;;5135043;27;20820;-76
2023/03/13 15:28:13;;;;;;;2.33;1.20;;;;;;;;;;5134576;27;20449;-76
2023/03/13 15:33:44;;;;;;;1.30;1.20;;;;;;;;;;5131689;27;20764;-75
2023/03/13 15:36:17;;;;;;;1.20;1.10;;;;;;;;;;5135008;27;20433;-77
2023/03/13 15:38:53;;;;;;;3.33;1.90;;;;;;;;;;5133569;27;20450;-75
2023/03/13 15:41:29;;;;;;;2.77;2.00;;;;;;;;;;5133895;27;20422;-76
2023/03/13 15:44:06;;;;;;;2.30;1.27;;;;;;;;;;5132957;27;20504;-77
2023/03/13 15:46:47;;;;;;;1.13;1.00;;;;;;;;;;5133025;27;20473;-75
2023/03/13 15:49:22;;;;;;;1.17;1.00;;;;;;;;;;5134026;27;20828;-76
2023/03/13 15:51:57;;;;;;;1.47;1.10;;;;;;;;;;5133312;27;20481;-76
2023/03/13 15:54:43;;;;;;;1.83;1.13;;;;;;;;;;5132374;27;20477;-75